createdAt,value
2023-05-19T00:00:58.991Z,47.25
2023-05-19T00:03:26.903Z,47.04
2023-05-19T00:05:54.135Z,47.21
2023-05-19T00:08:23.571Z,47.45
2023-05-19T00:10:50.384Z,47.21
2023-05-19T00:13:17.070Z,47.20
2023-05-19T00:15:43.661Z,47.43
2023-05-19T00:18:13.942Z,47.36
2023-05-19T00:20:40.675Z,47.53
2023-05-19T00:23:07.062Z,47.46
2023-05-19T00:25:33.469Z,47.53
2023-05-19T00:27:59.914Z,48.04
2023-05-19T00:30:26.721Z,47.43
2023-05-19T00:32:53.754Z,47.20
2023-05-19T00:35:20.626Z,47.58
2023-05-19T00:37:47.270Z,47.52
2023-05-19T00:40:13.795Z,47.55
2023-05-19T00:42:41.154Z,47.69
2023-05-19T00:45:08.565Z,47.54
2023-05-19T00:47:35.135Z,47.51
2023-05-19T00:50:01.598Z,47.59
2023-05-19T00:52:28.335Z,47.70
2023-05-19T00:54:55.438Z,47.62
2023-05-19T00:57:22.229Z,47.68
2023-05-19T00:59:48.904Z,47.43
2023-05-19T01:02:15.316Z,47.77
2023-05-19T01:04:43.731Z,47.77
2023-05-19T01:07:12.404Z,47.82
2023-05-19T01:09:39.395Z,47.74
2023-05-19T01:12:08.650Z,47.82
2023-05-19T01:14:35.081Z,47.92
2023-05-19T01:17:09.923Z,47.82
2023-05-19T01:20:08.197Z,47.90
2023-05-19T01:22:56.486Z,47.81
2023-05-19T01:25:47.446Z,47.98
2023-05-19T01:28:46.126Z,47.89
2023-05-19T01:31:13.567Z,47.82
2023-05-19T01:33:43.110Z,48.04
2023-05-19T01:36:12.232Z,47.97
2023-05-19T01:38:38.884Z,47.91
2023-05-19T01:41:07.220Z,48.01
2023-05-19T01:43:35.854Z,47.92
2023-05-19T01:46:03.515Z,47.83
2023-05-19T01:48:30.552Z,47.73
2023-05-19T01:50:57.877Z,47.81
2023-05-19T01:53:24.680Z,48.00
2023-05-19T01:55:53.904Z,47.92
2023-05-19T01:58:20.611Z,48.05
2023-05-19T02:00:53.919Z,47.98
2023-05-19T02:03:41.760Z,47.84
2023-05-19T02:06:34.349Z,48.07
2023-05-19T02:09:05.644Z,48.06
2023-05-19T02:11:45.800Z,48.01
2023-05-19T02:14:29.583Z,48.08
2023-05-19T02:16:57.670Z,47.96
2023-05-19T02:19:30.594Z,48.01
2023-05-19T02:21:57.052Z,47.91
2023-05-19T02:24:23.476Z,48.05
2023-05-19T02:26:51.723Z,48.03
2023-05-19T02:29:18.967Z,48.09
2023-05-19T02:31:45.439Z,48.05
2023-05-19T02:34:12.295Z,48.23
2023-05-19T02:36:41.307Z,48.21
2023-05-19T02:39:09.842Z,48.17
2023-05-19T02:41:36.895Z,48.14
2023-05-19T02:44:04.415Z,48.41
2023-05-19T02:46:31.421Z,48.11
2023-05-19T02:48:58.277Z,48.22
2023-05-19T02:51:24.739Z,47.53
2023-05-19T02:53:51.248Z,48.18
2023-05-19T02:56:17.784Z,48.16
2023-05-19T02:58:44.550Z,48.22
2023-05-19T03:01:11.150Z,47.89
2023-05-19T03:03:37.656Z,48.14
2023-05-19T03:06:04.919Z,48.10
2023-05-19T03:08:31.404Z,48.25
2023-05-19T03:10:57.877Z,48.10
2023-05-19T03:13:24.330Z,47.97
2023-05-19T03:15:51.077Z,48.20
2023-05-19T03:18:17.639Z,48.29
2023-05-19T03:20:44.578Z,48.07
2023-05-19T03:23:11.125Z,48.13
2023-05-19T03:25:37.552Z,48.11
2023-05-19T03:28:04.424Z,48.39
2023-05-19T03:30:31.092Z,48.07
2023-05-19T03:33:09.787Z,48.12
2023-05-19T03:35:36.404Z,48.17
2023-05-19T03:38:02.942Z,48.24
2023-05-19T03:40:30.006Z,48.11
2023-05-19T03:43:03.043Z,48.13
2023-05-19T03:45:30.294Z,48.18
2023-05-19T03:47:56.985Z,48.19
2023-05-19T03:50:45.997Z,48.26
2023-05-19T03:53:17.373Z,48.24
2023-05-19T03:55:44.695Z,48.22
2023-05-19T03:58:14.550Z,48.26
2023-05-19T04:00:41.480Z,48.26
2023-05-19T04:03:08.335Z,48.32
2023-05-19T04:05:34.938Z,47.79
2023-05-19T04:08:01.456Z,48.24
2023-05-19T04:10:27.875Z,48.23
2023-05-19T04:12:54.692Z,48.22
2023-05-19T04:15:21.361Z,48.29
2023-05-19T04:17:48.132Z,48.31
2023-05-19T04:20:14.673Z,48.35
2023-05-19T04:22:41.395Z,48.46
2023-05-19T04:25:08.787Z,48.22
2023-05-19T04:27:39.114Z,48.29
2023-05-19T04:30:06.842Z,48.30
2023-05-19T04:32:33.631Z,48.22
2023-05-19T04:35:00.147Z,48.65
2023-05-19T04:37:28.055Z,48.33
2023-05-19T04:39:54.618Z,48.26
2023-05-19T04:42:25.987Z,48.29
2023-05-19T04:44:53.271Z,48.39
2023-05-19T04:47:22.454Z,48.19
2023-05-19T04:49:49.316Z,48.32
2023-05-19T04:52:15.818Z,48.28
2023-05-19T04:54:42.265Z,48.37
2023-05-19T04:57:12.066Z,48.29
2023-05-19T04:59:39.610Z,48.34
2023-05-19T05:02:07.852Z,48.04
2023-05-19T05:04:36.520Z,48.23
2023-05-19T05:07:03.094Z,48.22
2023-05-19T05:09:29.552Z,48.21
2023-05-19T05:11:58.604Z,48.16
2023-05-19T05:14:25.390Z,48.29
2023-05-19T05:16:52.555Z,48.19
2023-05-19T05:19:23.119Z,48.31
2023-05-19T05:21:49.967Z,48.38
2023-05-19T05:24:17.039Z,48.00
2023-05-19T05:26:50.604Z,48.37
2023-05-19T05:29:17.163Z,48.31
2023-05-19T05:31:43.697Z,48.24
2023-05-19T05:34:11.148Z,48.46
2023-05-19T05:36:38.978Z,48.26
2023-05-19T05:39:06.978Z,48.16
2023-05-19T05:41:36.510Z,48.37
2023-05-19T05:44:09.108Z,48.26
2023-05-19T05:46:38.025Z,48.22
2023-05-19T05:49:04.714Z,48.34
2023-05-19T05:51:32.928Z,48.36
2023-05-19T05:54:00.864Z,48.25
2023-05-19T05:56:34.284Z,48.34
2023-05-19T05:59:02.002Z,48.24
2023-05-19T06:01:30.458Z,48.20
2023-05-19T06:03:56.926Z,48.52
2023-05-19T06:06:24.130Z,48.29
2023-05-19T06:08:52.425Z,48.19
2023-05-19T06:11:19.635Z,48.29
2023-05-19T06:13:46.102Z,48.16
2023-05-19T06:16:20.604Z,48.15
2023-05-19T06:18:47.527Z,48.22
2023-05-19T06:21:14.507Z,48.32
2023-05-19T06:23:42.039Z,48.49
2023-05-19T06:26:10.316Z,48.17
2023-05-19T06:28:37.445Z,48.22
2023-05-19T06:31:04.486Z,48.11
2023-05-19T06:33:44.908Z,48.16
2023-05-19T06:36:11.932Z,48.12
2023-05-19T06:38:40.050Z,48.17
2023-05-19T06:41:06.913Z,48.18
2023-05-19T06:43:33.739Z,48.08
2023-05-19T06:46:03.174Z,48.27
2023-05-19T06:48:31.523Z,48.17
2023-05-19T06:50:58.722Z,48.27
2023-05-19T06:53:26.049Z,48.25
2023-05-19T06:55:59.474Z,48.25
2023-05-19T06:58:28.323Z,48.04
2023-05-19T07:00:55.790Z,48.13
2023-05-19T07:03:26.045Z,48.25
2023-05-19T07:05:54.128Z,48.07
2023-05-19T07:08:20.620Z,48.09
2023-05-19T07:10:47.139Z,48.00
2023-05-19T07:13:15.114Z,48.02
2023-05-19T07:15:41.574Z,48.14
2023-05-19T07:18:08.087Z,48.03
2023-05-19T07:20:35.569Z,48.14
2023-05-19T07:23:02.662Z,47.97
2023-05-19T07:25:30.605Z,47.96
2023-05-19T07:27:57.296Z,48.07
2023-05-19T07:30:23.776Z,47.91
2023-05-19T07:32:50.530Z,47.97
2023-05-19T07:35:17.010Z,48.19
2023-05-19T07:37:43.452Z,48.06
2023-05-19T07:40:10.161Z,48.06
2023-05-19T07:42:36.581Z,48.12
2023-05-19T07:45:03.500Z,48.50
2023-05-19T07:47:30.582Z,49.28
2023-05-19T07:49:57.053Z,50.14
2023-05-19T07:52:23.549Z,50.67
2023-05-19T07:54:49.961Z,51.51
2023-05-19T07:57:16.584Z,52.71
2023-05-19T07:59:42.987Z,53.18
2023-05-19T08:02:09.428Z,53.61
2023-05-19T08:04:36.199Z,54.92
2023-05-19T08:07:02.755Z,55.59
2023-05-19T08:09:29.211Z,56.10
2023-05-19T08:11:55.674Z,57.03
2023-05-19T08:14:22.854Z,57.39
2023-05-19T08:16:49.857Z,58.02
2023-05-19T08:19:16.377Z,58.21
2023-05-19T08:21:42.848Z,58.67
2023-05-19T08:24:09.337Z,58.35
2023-05-19T08:26:37.601Z,58.26
2023-05-19T08:29:04.428Z,58.17
2023-05-19T08:31:30.875Z,57.72
2023-05-19T08:33:58.835Z,56.87
2023-05-19T08:36:25.747Z,56.11
2023-05-19T08:38:52.199Z,55.77
2023-05-19T08:41:18.705Z,55.39
2023-05-19T08:43:45.389Z,54.85
2023-05-19T08:46:14.319Z,54.31
2023-05-19T08:48:43.895Z,54.21
2023-05-19T08:51:33.498Z,53.86
2023-05-19T08:54:17.913Z,53.38
2023-05-19T08:56:47.771Z,53.04
2023-05-19T08:59:17.354Z,52.87
2023-05-19T09:01:45.819Z,52.61
2023-05-19T09:04:13.205Z,52.23
2023-05-19T09:06:44.924Z,52.31
2023-05-19T09:09:11.496Z,52.62
2023-05-19T09:11:37.946Z,53.49
2023-05-19T09:14:05.598Z,53.90
2023-05-19T09:16:33.955Z,54.45
2023-05-19T09:19:01.138Z,54.60
2023-05-19T09:21:31.623Z,54.48
2023-05-19T09:24:08.441Z,54.21
2023-05-19T09:26:39.753Z,54.09
2023-05-19T09:29:12.929Z,53.83
2023-05-19T09:31:39.808Z,53.78
2023-05-19T09:34:12.684Z,53.44
2023-05-19T09:36:41.354Z,53.57
2023-05-19T09:39:17.705Z,53.65
2023-05-19T09:41:44.930Z,53.67
2023-05-19T09:44:20.947Z,53.42
2023-05-19T09:46:49.024Z,53.39
2023-05-19T09:49:20.432Z,53.33
2023-05-19T09:51:49.317Z,53.24
2023-05-19T09:54:16.445Z,53.01
2023-05-19T09:56:43.201Z,52.87
2023-05-19T09:59:09.831Z,53.08
2023-05-19T10:01:41.036Z,52.62
2023-05-19T10:04:07.790Z,52.47
2023-05-19T10:06:34.558Z,52.59
2023-05-19T10:09:01.301Z,52.42
2023-05-19T10:11:29.941Z,50.59
2023-05-19T10:13:56.751Z,51.67
2023-05-19T10:16:26.590Z,51.77
2023-05-19T10:18:55.415Z,51.94
2023-05-19T10:21:22.674Z,51.70
2023-05-19T10:23:49.093Z,51.73
2023-05-19T10:26:16.293Z,51.82
2023-05-19T10:28:45.370Z,51.76
2023-05-19T10:31:18.727Z,51.62
2023-05-19T10:34:22.168Z,51.76
2023-05-19T10:36:53.759Z,51.63
2023-05-19T10:39:31.699Z,51.74
2023-05-19T10:42:17.231Z,51.61
2023-05-19T10:45:11.777Z,51.67
2023-05-19T10:47:42.679Z,51.61
2023-05-19T10:50:10.403Z,51.76
2023-05-19T10:52:38.453Z,51.73
2023-05-19T10:55:08.661Z,51.73
2023-05-19T10:57:35.439Z,51.57
2023-05-19T11:00:28.181Z,51.62
2023-05-19T11:02:57.808Z,51.56
2023-05-19T11:05:30.436Z,51.70
2023-05-19T11:08:06.134Z,51.68
2023-05-19T11:10:32.596Z,51.63
2023-05-19T11:12:59.370Z,51.66
2023-05-19T11:15:29.933Z,51.47
2023-05-19T11:17:56.788Z,51.49
2023-05-19T11:20:27.915Z,51.33
2023-05-19T11:23:14.888Z,51.42
2023-05-19T11:25:52.204Z,48.09
2023-05-19T11:28:20.628Z,49.58
2023-05-19T11:30:52.625Z,49.63
2023-05-19T11:33:20.314Z,49.83
2023-05-19T11:35:49.178Z,49.90
2023-05-19T11:38:16.879Z,49.84
2023-05-19T11:40:44.303Z,49.92
2023-05-19T11:43:10.922Z,49.08
2023-05-19T11:45:37.842Z,49.80
2023-05-19T11:48:05.348Z,49.77
2023-05-19T11:50:32.486Z,49.88
2023-05-19T11:53:00.859Z,49.75
2023-05-19T11:55:27.841Z,49.85
2023-05-19T11:58:04.957Z,49.90
2023-05-19T12:00:37.556Z,50.07
2023-05-19T12:03:04.374Z,49.71
2023-05-19T12:05:34.480Z,49.75
2023-05-19T12:08:03.057Z,49.67
2023-05-19T12:10:31.691Z,49.66
2023-05-19T12:12:59.190Z,49.38
2023-05-19T12:15:26.113Z,49.48
2023-05-19T12:18:00.187Z,49.43
2023-05-19T12:20:28.311Z,49.67
2023-05-19T12:22:56.151Z,49.46
2023-05-19T12:25:23.477Z,49.45
2023-05-19T12:27:52.528Z,49.61
2023-05-19T12:30:24.976Z,49.43
2023-05-19T12:32:53.846Z,49.45
2023-05-19T12:35:20.503Z,49.50
2023-05-19T12:37:49.085Z,49.47
2023-05-19T12:40:16.877Z,49.55
2023-05-19T12:42:48.687Z,49.58
2023-05-19T12:45:15.229Z,49.41
2023-05-19T12:47:41.771Z,49.68
2023-05-19T12:50:10.008Z,49.61
2023-05-19T12:52:52.039Z,49.70
2023-05-19T12:55:20.503Z,49.71
2023-05-19T12:57:51.829Z,50.00
2023-05-19T13:00:25.653Z,49.83
2023-05-19T13:03:05.074Z,49.82
2023-05-19T13:05:33.923Z,49.92
2023-05-19T13:08:08.537Z,51.39
2023-05-19T13:10:36.246Z,52.53
2023-05-19T13:13:03.931Z,52.92
2023-05-19T13:15:34.205Z,53.05
2023-05-19T13:18:03.579Z,52.46
2023-05-19T13:20:30.249Z,52.81
2023-05-19T13:22:57.366Z,52.74
2023-05-19T13:25:23.914Z,52.69
2023-05-19T13:27:50.998Z,52.46
2023-05-19T13:30:19.030Z,51.14
2023-05-19T13:32:46.041Z,49.37
2023-05-19T13:35:14.373Z,49.40
2023-05-19T13:37:41.980Z,50.31
2023-05-19T13:40:09.455Z,50.34
2023-05-19T13:42:36.379Z,50.70
2023-05-19T13:45:03.534Z,50.48
2023-05-19T13:47:30.299Z,50.59
2023-05-19T13:49:57.205Z,51.16
2023-05-19T13:52:23.855Z,50.53
2023-05-19T13:54:50.360Z,50.65
2023-05-19T13:57:16.874Z,50.51
2023-05-19T14:00:00.292Z,50.43
2023-05-19T14:02:38.469Z,50.49
2023-05-19T14:05:05.768Z,50.35
2023-05-19T14:07:34.604Z,50.00
2023-05-19T14:10:01.800Z,50.00
2023-05-19T14:12:38.179Z,49.76
2023-05-19T14:15:11.467Z,49.58
2023-05-19T14:17:38.468Z,49.27
2023-05-19T14:20:05.587Z,49.35
2023-05-19T14:22:32.250Z,49.42
2023-05-19T14:25:00.379Z,49.11
2023-05-19T14:27:27.929Z,49.31
2023-05-19T14:29:54.434Z,49.09
2023-05-19T14:32:21.360Z,49.07
2023-05-19T14:34:47.798Z,48.91
2023-05-19T14:37:14.283Z,48.73
2023-05-19T14:39:40.698Z,48.61
2023-05-19T14:42:07.121Z,48.51
2023-05-19T14:44:33.544Z,48.74
2023-05-19T14:47:01.717Z,48.97
2023-05-19T14:49:28.139Z,48.84
2023-05-19T14:51:54.561Z,48.69
2023-05-19T14:54:21.044Z,48.57
2023-05-19T14:56:47.543Z,48.80
2023-05-19T14:59:14.150Z,48.55
2023-05-19T15:01:40.684Z,48.24
2023-05-19T15:04:07.219Z,48.47
2023-05-19T15:06:33.691Z,48.59
2023-05-19T15:09:00.166Z,48.48
2023-05-19T15:11:26.589Z,48.34
2023-05-19T15:13:53.092Z,48.62
2023-05-19T15:16:19.548Z,48.88
2023-05-19T15:18:46.088Z,49.09
2023-05-19T15:21:12.664Z,49.45
2023-05-19T15:23:39.106Z,49.81
2023-05-19T15:26:05.596Z,49.38
2023-05-19T15:28:32.227Z,49.73
2023-05-19T15:30:58.651Z,49.71
2023-05-19T15:33:25.157Z,49.81
2023-05-19T15:35:52.716Z,50.17
2023-05-19T15:38:20.788Z,49.75
2023-05-19T15:40:47.300Z,50.27
2023-05-19T15:43:13.803Z,49.66
2023-05-19T15:45:40.739Z,49.93
2023-05-19T15:48:07.230Z,50.55
2023-05-19T15:50:33.900Z,50.09
2023-05-19T15:53:00.588Z,50.48
2023-05-19T15:55:27.021Z,50.16
2023-05-19T15:57:53.438Z,50.09
2023-05-19T16:00:20.392Z,50.11
2023-05-19T16:02:46.888Z,49.51
2023-05-19T16:05:13.384Z,49.92
2023-05-19T16:07:41.877Z,49.82
2023-05-19T16:10:08.700Z,50.04
2023-05-19T16:12:36.484Z,50.22
2023-05-19T16:15:03.237Z,49.88
2023-05-19T16:17:29.682Z,50.23
2023-05-19T16:19:56.181Z,50.03
2023-05-19T16:22:24.615Z,49.77
2023-05-19T16:24:51.802Z,49.52
2023-05-19T16:27:18.600Z,49.94
2023-05-19T16:29:44.994Z,49.52
2023-05-19T16:32:12.384Z,49.73
2023-05-19T16:34:38.918Z,49.79
2023-05-19T16:37:05.510Z,49.89
2023-05-19T16:39:31.918Z,49.93
2023-05-19T16:41:58.378Z,49.78
2023-05-19T16:44:25.558Z,49.57
2023-05-19T16:46:53.507Z,49.47
2023-05-19T16:49:19.898Z,49.53
2023-05-19T16:51:48.263Z,49.00
2023-05-19T16:54:15.386Z,48.11
2023-05-19T16:56:41.787Z,45.81
2023-05-19T16:59:08.956Z,42.23
2023-05-19T17:01:35.478Z,41.59
2023-05-19T17:04:01.954Z,39.10
2023-05-19T17:06:28.518Z,40.18
2023-05-19T17:08:55.076Z,40.72
2023-05-19T17:11:21.708Z,41.71
2023-05-19T17:13:48.100Z,42.46
2023-05-19T17:16:14.668Z,43.14
2023-05-19T17:18:41.145Z,42.96
2023-05-19T17:21:07.635Z,43.06
2023-05-19T17:23:34.089Z,43.44
2023-05-19T17:26:00.737Z,43.70
2023-05-19T17:28:27.184Z,43.93
2023-05-19T17:30:53.581Z,44.08
2023-05-19T17:33:20.107Z,44.57
2023-05-19T17:35:46.570Z,44.65
2023-05-19T17:38:13.020Z,44.79
2023-05-19T17:40:41.951Z,44.92
2023-05-19T17:43:08.601Z,44.91
2023-05-19T17:45:35.036Z,45.28
2023-05-19T17:48:01.826Z,45.19
2023-05-19T17:50:28.489Z,45.35
2023-05-19T17:52:56.030Z,45.68
2023-05-19T17:55:24.687Z,45.57
2023-05-19T17:57:51.524Z,45.53
2023-05-19T18:00:18.588Z,45.64
2023-05-19T18:02:45.415Z,45.50
2023-05-19T18:05:12.652Z,45.71
2023-05-19T18:07:42.021Z,45.67
2023-05-19T18:10:09.273Z,45.65
2023-05-19T18:12:35.874Z,45.71
2023-05-19T18:15:03.242Z,45.81
2023-05-19T18:17:29.697Z,45.84
2023-05-19T18:19:56.133Z,45.94
2023-05-19T18:22:22.572Z,45.92
2023-05-19T18:24:49.009Z,45.93
2023-05-19T18:27:15.504Z,45.88
2023-05-19T18:29:42.229Z,46.12
2023-05-19T18:32:08.975Z,45.88
2023-05-19T18:34:35.530Z,46.10
2023-05-19T18:37:01.947Z,46.04
2023-05-19T18:39:29.333Z,46.17
2023-05-19T18:41:55.887Z,46.12
2023-05-19T18:44:22.334Z,46.05
2023-05-19T18:46:48.784Z,46.12
2023-05-19T18:49:15.766Z,46.17
2023-05-19T18:51:42.443Z,46.36
2023-05-19T18:54:09.008Z,46.31
2023-05-19T18:56:35.582Z,46.17
2023-05-19T18:59:03.709Z,46.53
2023-05-19T19:01:30.144Z,46.35
2023-05-19T19:03:56.614Z,46.37
2023-05-19T19:06:23.347Z,46.57
2023-05-19T19:08:50.092Z,46.49
2023-05-19T19:11:16.538Z,46.69
2023-05-19T19:13:43.584Z,46.45
2023-05-19T19:16:10.037Z,46.69
2023-05-19T19:18:36.643Z,46.73
2023-05-19T19:21:05.356Z,46.55
2023-05-19T19:23:31.907Z,46.70
2023-05-19T19:25:58.345Z,46.60
2023-05-19T19:28:24.881Z,46.72
2023-05-19T19:30:51.347Z,47.13
2023-05-19T19:33:17.925Z,46.72
2023-05-19T19:35:46.746Z,47.05
2023-05-19T19:38:13.753Z,46.73
2023-05-19T19:40:40.270Z,46.90
2023-05-19T19:43:06.902Z,46.93
2023-05-19T19:45:34.693Z,46.65
2023-05-19T19:48:01.645Z,46.76
2023-05-19T19:50:28.233Z,47.13
2023-05-19T19:52:54.647Z,46.85
2023-05-19T19:55:21.039Z,47.09
2023-05-19T19:57:49.147Z,46.92
2023-05-19T20:00:16.051Z,47.05
2023-05-19T20:02:59.521Z,47.35
2023-05-19T20:05:28.837Z,46.98
2023-05-19T20:07:55.336Z,47.33
2023-05-19T20:10:21.774Z,47.39
2023-05-19T20:12:48.338Z,47.35
2023-05-19T20:15:15.072Z,47.38
2023-05-19T20:17:41.565Z,47.50
2023-05-19T20:20:10.662Z,47.75
2023-05-19T20:22:37.088Z,47.88
2023-05-19T20:25:03.794Z,47.84
2023-05-19T20:27:30.190Z,47.69
2023-05-19T20:29:56.614Z,47.59
2023-05-19T20:32:23.027Z,47.50
2023-05-19T20:34:49.538Z,48.13
2023-05-19T20:37:17.220Z,47.61
2023-05-19T20:39:43.692Z,47.47
2023-05-19T20:42:11.184Z,47.90
2023-05-19T20:44:37.602Z,47.66
2023-05-19T20:47:04.341Z,47.77
2023-05-19T20:49:30.767Z,47.54
2023-05-19T20:51:57.195Z,47.98
2023-05-19T20:54:23.581Z,47.79
2023-05-19T20:56:51.544Z,48.03
2023-05-19T20:59:18.006Z,48.35
2023-05-19T21:01:45.899Z,48.28
2023-05-19T21:04:12.394Z,48.40
2023-05-19T21:06:38.984Z,48.63
2023-05-19T21:09:06.736Z,48.33
2023-05-19T21:11:34.308Z,48.81
2023-05-19T21:14:04.076Z,48.30
2023-05-19T21:16:31.222Z,48.37
2023-05-19T21:18:57.865Z,48.13
2023-05-19T21:21:24.397Z,48.72
2023-05-19T21:23:50.801Z,48.79
2023-05-19T21:26:17.799Z,48.78
2023-05-19T21:28:44.354Z,48.92
2023-05-19T21:31:11.213Z,48.72
2023-05-19T21:33:37.630Z,47.95
2023-05-19T21:36:04.214Z,48.65
2023-05-19T21:38:30.787Z,48.60
2023-05-19T21:40:57.322Z,48.78
2023-05-19T21:43:23.726Z,49.20
2023-05-19T21:45:50.210Z,49.07
2023-05-19T21:50:43.046Z,49.36
2023-05-19T21:53:09.550Z,48.71
2023-05-19T21:55:35.934Z,49.06
2023-05-19T21:58:02.943Z,48.81
2023-05-19T22:00:29.514Z,49.06
2023-05-19T22:02:56.058Z,49.13
2023-05-19T22:05:22.558Z,49.02
2023-05-19T22:07:48.966Z,48.67
2023-05-19T22:10:15.445Z,49.06
2023-05-19T22:12:41.868Z,48.67
2023-05-19T22:15:08.940Z,49.09
2023-05-19T22:17:35.449Z,49.03
2023-05-19T22:20:01.977Z,49.05
2023-05-19T22:22:28.383Z,49.37
2023-05-19T22:24:55.258Z,48.88
2023-05-19T22:27:21.650Z,49.08
2023-05-19T22:29:48.065Z,49.34
2023-05-19T22:32:17.805Z,49.17
2023-05-19T22:34:44.731Z,49.08
2023-05-19T22:37:11.824Z,49.18
2023-05-19T22:39:38.904Z,49.31
2023-05-19T22:42:07.579Z,49.27
2023-05-19T22:44:34.017Z,49.54
2023-05-19T22:47:00.489Z,49.32
2023-05-19T22:49:27.383Z,49.42
2023-05-19T22:51:53.857Z,49.33
2023-05-19T22:54:20.355Z,49.35
2023-05-19T22:56:48.636Z,49.47
2023-05-19T22:59:17.561Z,49.63
2023-05-19T23:01:46.250Z,49.48
2023-05-19T23:04:13.066Z,49.40
2023-05-19T23:06:42.184Z,49.60
2023-05-19T23:09:08.579Z,49.57
2023-05-19T23:11:35.837Z,49.67
2023-05-19T23:14:02.440Z,49.76
2023-05-19T23:16:28.859Z,49.75
2023-05-19T23:18:55.453Z,49.68
2023-05-19T23:21:21.918Z,49.71
2023-05-19T23:23:48.414Z,49.82
2023-05-19T23:26:14.814Z,49.63
2023-05-19T23:28:42.044Z,49.66
2023-05-19T23:31:09.052Z,49.61
2023-05-19T23:33:35.611Z,49.64
2023-05-19T23:36:09.688Z,49.70
2023-05-19T23:38:37.180Z,49.85
2023-05-19T23:41:04.765Z,49.79
2023-05-19T23:43:32.356Z,49.82
2023-05-19T23:45:59.096Z,49.77
2023-05-19T23:48:26.022Z,49.83
2023-05-19T23:50:52.435Z,49.93
2023-05-19T23:53:18.877Z,49.99
2023-05-19T23:55:45.819Z,49.98
2023-05-19T23:58:12.241Z,50.12
